createdAt,value
2022-12-22T00:01:54.658Z,7.60
2022-12-22T00:04:40.213Z,7.60
2022-12-22T00:07:25.566Z,7.60
2022-12-22T00:10:11.140Z,7.60
2022-12-22T00:12:56.509Z,7.60
2022-12-22T00:15:41.563Z,7.60
2022-12-22T00:18:27.087Z,7.50
2022-12-22T00:21:12.523Z,7.50
2022-12-22T00:23:57.987Z,7.50
2022-12-22T00:26:43.321Z,7.50
2022-12-22T00:29:28.497Z,7.50
2022-12-22T00:32:13.664Z,7.50
2022-12-22T00:34:59.066Z,7.60
2022-12-22T00:37:44.612Z,7.60
2022-12-22T00:40:29.833Z,7.60
2022-12-22T00:43:15.013Z,7.60
2022-12-22T00:46:00.141Z,7.60
2022-12-22T00:48:45.746Z,7.70
2022-12-22T00:51:31.079Z,7.70
2022-12-22T00:54:16.294Z,7.70
2022-12-22T00:57:01.401Z,7.70
2022-12-22T00:59:46.840Z,7.70
2022-12-22T01:02:32.413Z,7.70
2022-12-22T01:05:17.800Z,7.70
2022-12-22T01:08:02.861Z,7.70
2022-12-22T01:10:48.398Z,7.60
2022-12-22T01:13:33.389Z,7.60
2022-12-22T01:16:18.922Z,7.60
2022-12-22T01:19:04.232Z,7.60
2022-12-22T01:21:49.671Z,7.60
2022-12-22T01:24:34.901Z,7.70
2022-12-22T01:27:20.060Z,7.70
2022-12-22T01:30:05.402Z,7.70
2022-12-22T01:32:50.602Z,7.70
2022-12-22T01:35:36.071Z,7.70
2022-12-22T01:38:21.322Z,7.70
2022-12-22T01:41:06.806Z,7.70
2022-12-22T01:43:52.065Z,7.80
2022-12-22T01:46:37.163Z,7.80
2022-12-22T01:49:22.613Z,7.80
2022-12-22T01:52:07.598Z,7.80
2022-12-22T01:54:53.030Z,7.80
2022-12-22T01:57:38.185Z,7.80
2022-12-22T02:00:23.563Z,7.80
2022-12-22T02:03:08.921Z,7.80
2022-12-22T02:05:54.288Z,7.80
2022-12-22T02:08:39.431Z,7.80
2022-12-22T02:11:24.342Z,7.90
2022-12-22T02:14:09.511Z,7.90
2022-12-22T02:16:54.619Z,7.90
2022-12-22T02:19:40.048Z,7.90
2022-12-22T02:22:25.542Z,7.90
2022-12-22T02:25:10.751Z,7.90
2022-12-22T02:27:55.994Z,7.90
2022-12-22T02:30:41.209Z,7.90
2022-12-22T02:33:26.607Z,7.90
2022-12-22T02:36:12.090Z,8.00
2022-12-22T02:38:57.309Z,8.00
2022-12-22T02:41:42.923Z,8.00
2022-12-22T02:44:28.020Z,8.00
2022-12-22T02:47:13.547Z,8.00
2022-12-22T02:49:58.853Z,8.00
2022-12-22T02:52:44.143Z,8.00
2022-12-22T02:55:29.276Z,8.00
2022-12-22T02:58:14.723Z,8.00
2022-12-22T03:00:59.864Z,8.00
2022-12-22T03:03:45.549Z,8.00
2022-12-22T03:06:31.107Z,8.00
2022-12-22T03:09:16.341Z,8.00
2022-12-22T03:12:01.639Z,8.00
2022-12-22T03:14:47.148Z,8.00
2022-12-22T03:17:32.516Z,8.00
2022-12-22T03:20:17.707Z,8.00
2022-12-22T03:23:03.116Z,8.00
2022-12-22T03:25:48.427Z,8.00
2022-12-22T03:28:15.041Z,8.00
2022-12-22T03:30:41.561Z,8.00
2022-12-22T03:33:08.142Z,8.00
2022-12-22T03:35:34.631Z,8.00
2022-12-22T03:38:03.388Z,8.10
2022-12-22T03:40:30.268Z,8.10
2022-12-22T03:43:15.638Z,8.00
2022-12-22T03:46:01.110Z,8.10
2022-12-22T03:48:27.705Z,8.10
2022-12-22T03:50:54.262Z,8.10
2022-12-22T03:53:20.768Z,8.10
2022-12-22T03:55:47.290Z,8.10
2022-12-22T03:58:13.897Z,8.20
2022-12-22T04:00:40.510Z,8.20
2022-12-22T04:03:07.134Z,8.20
2022-12-22T04:05:33.710Z,8.20
2022-12-22T04:08:00.242Z,8.20
2022-12-22T04:10:45.809Z,8.20
2022-12-22T04:13:12.304Z,8.20
2022-12-22T04:15:38.787Z,8.30
2022-12-22T04:18:05.332Z,8.20
2022-12-22T04:20:31.935Z,8.30
2022-12-22T04:22:58.467Z,8.30
2022-12-22T04:25:24.959Z,8.30
2022-12-22T04:27:51.858Z,8.30
2022-12-22T04:30:18.448Z,8.30
2022-12-22T04:32:45.097Z,8.30
2022-12-22T04:35:11.629Z,8.40
2022-12-22T04:37:38.231Z,8.40
2022-12-22T04:40:04.738Z,8.40
2022-12-22T04:42:31.301Z,8.40
2022-12-22T04:44:57.819Z,8.40
2022-12-22T04:47:24.331Z,8.40
2022-12-22T04:49:51.009Z,8.40
2022-12-22T04:52:17.507Z,8.40
2022-12-22T04:54:44.117Z,8.40
2022-12-22T04:57:10.636Z,8.40
2022-12-22T04:59:37.127Z,8.40
2022-12-22T05:02:03.735Z,8.40
2022-12-22T05:04:30.414Z,8.40
2022-12-22T05:06:56.946Z,8.50
2022-12-22T05:09:23.442Z,8.40
2022-12-22T05:11:49.950Z,8.50
2022-12-22T05:14:16.420Z,8.40
2022-12-22T05:16:42.951Z,8.50
2022-12-22T05:19:09.512Z,8.50
2022-12-22T05:21:36.063Z,8.50
2022-12-22T05:24:05.456Z,8.50
2022-12-22T05:26:31.964Z,8.50
2022-12-22T05:28:58.602Z,8.50
2022-12-22T05:31:25.270Z,8.50
2022-12-22T05:33:51.964Z,8.50
2022-12-22T05:36:18.495Z,8.50
2022-12-22T05:38:45.023Z,8.50
2022-12-22T05:41:11.522Z,8.50
2022-12-22T05:43:38.066Z,8.60
2022-12-22T05:46:04.668Z,8.60
2022-12-22T05:48:37.469Z,8.60
2022-12-22T05:51:04.880Z,8.60
2022-12-22T05:53:31.625Z,8.60
2022-12-22T05:55:58.286Z,8.70
2022-12-22T05:58:24.803Z,8.70
2022-12-22T06:00:51.336Z,8.70
2022-12-22T06:03:18.049Z,8.70
2022-12-22T06:05:44.653Z,8.70
2022-12-22T06:08:11.166Z,8.70
2022-12-22T06:10:37.668Z,8.70
2022-12-22T06:13:04.163Z,8.70
2022-12-22T06:15:30.672Z,8.70
2022-12-22T06:17:57.163Z,8.70
2022-12-22T06:20:23.729Z,8.70
2022-12-22T06:22:50.230Z,8.70
2022-12-22T06:25:18.710Z,8.80
2022-12-22T06:27:45.647Z,8.80
2022-12-22T06:30:12.143Z,8.80
2022-12-22T06:32:38.765Z,8.80
2022-12-22T06:35:05.297Z,8.70
2022-12-22T06:37:31.983Z,8.70
2022-12-22T06:39:58.469Z,8.70
2022-12-22T06:42:43.908Z,8.80
2022-12-22T06:45:10.429Z,8.80
2022-12-22T06:47:36.949Z,8.80
2022-12-22T06:50:03.445Z,8.90
2022-12-22T06:52:29.946Z,8.90
2022-12-22T06:54:56.428Z,8.90
2022-12-22T06:57:22.999Z,8.80
2022-12-22T06:59:55.341Z,8.80
2022-12-22T07:02:24.081Z,8.90
2022-12-22T07:04:50.718Z,8.80
2022-12-22T07:07:17.243Z,8.90
2022-12-22T07:09:43.782Z,8.90
2022-12-22T07:12:10.328Z,8.90
2022-12-22T07:14:36.832Z,8.90
2022-12-22T07:17:03.427Z,8.90
2022-12-22T07:19:29.961Z,8.90
2022-12-22T07:21:56.590Z,8.90
2022-12-22T07:24:25.735Z,8.90
2022-12-22T07:26:52.324Z,9.00
2022-12-22T07:29:20.092Z,9.00
2022-12-22T07:31:46.647Z,9.00
2022-12-22T07:34:13.206Z,9.10
2022-12-22T07:36:39.725Z,9.00
2022-12-22T07:39:06.224Z,9.00
2022-12-22T07:41:51.525Z,9.10
2022-12-22T07:44:18.065Z,9.00
2022-12-22T07:46:44.569Z,9.10
2022-12-22T07:49:30.136Z,9.10
2022-12-22T07:51:56.743Z,9.10
2022-12-22T07:54:23.272Z,9.10
2022-12-22T07:56:49.778Z,9.10
2022-12-22T07:59:16.260Z,9.00
2022-12-22T08:01:42.910Z,9.00
2022-12-22T08:04:09.633Z,9.10
2022-12-22T08:06:36.174Z,9.00
2022-12-22T08:09:02.669Z,9.00
2022-12-22T08:11:29.182Z,9.00
2022-12-22T08:14:01.048Z,9.00
2022-12-22T08:16:28.356Z,9.00
2022-12-22T08:18:55.210Z,8.90
2022-12-22T08:21:21.741Z,8.90
2022-12-22T08:23:48.280Z,8.90
2022-12-22T08:26:14.794Z,8.90
2022-12-22T08:28:41.299Z,8.90
2022-12-22T08:31:07.979Z,8.90
2022-12-22T08:33:34.533Z,8.90
2022-12-22T08:36:07.545Z,8.90
2022-12-22T08:38:34.706Z,8.90
2022-12-22T08:41:01.180Z,8.90
2022-12-22T08:43:28.954Z,8.90
2022-12-22T08:45:55.490Z,8.90
2022-12-22T08:48:21.985Z,8.90
2022-12-22T08:50:48.460Z,8.90
2022-12-22T08:53:37.583Z,9.00
2022-12-22T08:56:01.563Z,9.00
2022-12-22T08:58:28.078Z,9.00
2022-12-22T09:00:54.600Z,9.00
2022-12-22T09:03:21.399Z,9.00
2022-12-22T09:05:48.039Z,8.90
2022-12-22T09:08:14.615Z,9.00
2022-12-22T09:10:41.114Z,8.90
2022-12-22T09:13:07.648Z,8.90
2022-12-22T09:15:34.159Z,9.00
2022-12-22T09:18:00.673Z,8.90
2022-12-22T09:20:27.213Z,8.90
2022-12-22T09:22:53.736Z,8.90
2022-12-22T09:25:20.256Z,8.90
2022-12-22T09:27:46.782Z,8.90
2022-12-22T09:30:13.296Z,8.90
2022-12-22T09:32:39.867Z,8.90
2022-12-22T09:35:06.482Z,8.90
2022-12-22T09:37:33.014Z,8.90
2022-12-22T09:39:59.559Z,8.90
2022-12-22T09:42:26.074Z,8.90
2022-12-22T09:44:52.639Z,8.90
2022-12-22T09:47:19.278Z,8.90
2022-12-22T09:49:45.902Z,8.90
2022-12-22T09:52:12.400Z,8.90
2022-12-22T09:54:38.867Z,8.80
2022-12-22T09:57:05.411Z,8.80
2022-12-22T09:59:32.515Z,8.80
2022-12-22T10:01:59.099Z,8.80
2022-12-22T10:04:25.708Z,8.70
2022-12-22T10:06:52.257Z,8.70
2022-12-22T10:09:46.104Z,8.80
2022-12-22T10:12:05.388Z,8.80
2022-12-22T10:14:31.900Z,8.80
2022-12-22T10:16:58.537Z,8.80
2022-12-22T10:19:25.129Z,8.80
2022-12-22T10:21:51.653Z,8.70
2022-12-22T10:24:18.199Z,8.70
2022-12-22T10:26:44.724Z,8.70
2022-12-22T10:29:11.251Z,8.70
2022-12-22T10:31:39.563Z,8.60
2022-12-22T10:34:06.180Z,8.70
2022-12-22T10:36:32.966Z,8.70
2022-12-22T10:38:59.618Z,8.70
2022-12-22T10:41:26.481Z,8.80
2022-12-22T10:43:53.004Z,8.80
2022-12-22T10:46:19.569Z,8.90
2022-12-22T10:48:46.109Z,8.90
2022-12-22T10:51:12.706Z,8.90
2022-12-22T10:53:39.184Z,8.90
2022-12-22T10:56:06.877Z,8.90
2022-12-22T10:58:33.423Z,8.90
2022-12-22T11:01:00.530Z,8.90
2022-12-22T11:03:27.178Z,8.90
2022-12-22T11:05:53.733Z,8.90
2022-12-22T11:08:20.299Z,8.90
2022-12-22T11:10:46.816Z,8.90
2022-12-22T11:13:13.376Z,8.90
2022-12-22T11:15:39.908Z,8.90
2022-12-22T11:18:06.470Z,8.80
2022-12-22T11:20:33.010Z,8.80
2022-12-22T11:22:59.484Z,8.80
2022-12-22T11:25:25.996Z,8.80
2022-12-22T11:27:52.537Z,8.80
2022-12-22T11:30:19.056Z,8.80
2022-12-22T11:32:45.571Z,8.70
2022-12-22T11:35:12.072Z,8.80
2022-12-22T11:37:38.584Z,8.70
2022-12-22T11:40:05.067Z,8.70
2022-12-22T11:42:31.566Z,8.60
2022-12-22T11:44:58.080Z,8.60
2022-12-22T11:47:25.315Z,8.60
2022-12-22T11:49:51.986Z,8.60
2022-12-22T11:52:20.147Z,8.60
2022-12-22T11:54:46.693Z,8.60
2022-12-22T11:57:13.252Z,8.60
2022-12-22T11:59:39.767Z,8.60
2022-12-22T12:02:06.379Z,8.50
2022-12-22T12:04:33.063Z,8.50
2022-12-22T12:06:59.644Z,8.50
2022-12-22T12:09:26.256Z,8.50
2022-12-22T12:11:52.761Z,8.50
2022-12-22T12:14:19.271Z,8.50
2022-12-22T12:16:45.795Z,8.40
2022-12-22T12:19:12.278Z,8.40
2022-12-22T12:21:38.877Z,8.40
2022-12-22T12:24:05.362Z,8.40
2022-12-22T12:26:31.978Z,8.30
2022-12-22T12:28:58.477Z,8.40
2022-12-22T12:31:26.751Z,8.50
2022-12-22T12:33:53.545Z,8.70
2022-12-22T12:36:20.064Z,8.90
2022-12-22T12:41:33.200Z,9.30
2022-12-22T12:43:59.800Z,9.60
2022-12-22T12:46:26.330Z,9.80
2022-12-22T12:48:52.884Z,10.10
2022-12-22T12:51:19.373Z,10.20
2022-12-22T12:53:45.942Z,10.30
2022-12-22T12:56:13.239Z,10.30
2022-12-22T12:58:39.760Z,10.20
2022-12-22T13:01:06.326Z,10.20
2022-12-22T13:04:02.334Z,10.30
2022-12-22T13:06:21.092Z,10.20
2022-12-22T13:08:47.590Z,10.00
2022-12-22T13:11:14.147Z,9.80
2022-12-22T13:13:40.713Z,9.60
2022-12-22T13:16:07.366Z,9.50
2022-12-22T13:18:34.058Z,9.40
2022-12-22T13:21:26.252Z,9.20
2022-12-22T13:24:22.409Z,9.10
2022-12-22T13:26:34.016Z,9.00
2022-12-22T13:29:00.602Z,8.90
2022-12-22T13:31:27.166Z,8.90
2022-12-22T13:33:53.689Z,8.80
2022-12-22T13:36:20.182Z,8.80
2022-12-22T13:38:47.011Z,8.80
2022-12-22T13:41:13.530Z,8.80
2022-12-22T13:43:40.633Z,8.80
2022-12-22T13:46:07.265Z,8.80
2022-12-22T13:48:39.868Z,8.70
2022-12-22T13:51:09.954Z,8.70
2022-12-22T13:56:22.992Z,8.60
2022-12-22T13:58:49.526Z,8.60
2022-12-22T14:01:17.054Z,8.60
2022-12-22T14:03:59.449Z,8.60
2022-12-22T14:06:26.683Z,8.60
2022-12-22T14:08:53.263Z,8.50
2022-12-22T14:11:19.744Z,8.50
2022-12-22T14:13:46.253Z,8.50
2022-12-22T14:16:12.825Z,8.50
2022-12-22T14:18:39.396Z,8.40
2022-12-22T14:21:05.894Z,8.40
2022-12-22T14:23:32.598Z,8.40
2022-12-22T14:25:59.169Z,8.30
2022-12-22T14:28:25.676Z,8.30
2022-12-22T14:30:52.220Z,8.30
2022-12-22T14:33:18.775Z,8.20
2022-12-22T14:35:45.327Z,8.30
2022-12-22T14:38:11.848Z,8.20
2022-12-22T14:40:38.577Z,8.10
2022-12-22T14:43:05.253Z,8.20
2022-12-22T14:45:31.839Z,8.20
2022-12-22T14:47:58.451Z,8.10
2022-12-22T14:50:25.002Z,8.10
2022-12-22T14:52:51.508Z,8.10
2022-12-22T14:55:17.994Z,8.00
2022-12-22T14:57:44.484Z,8.00
2022-12-22T15:00:11.085Z,8.00
2022-12-22T15:02:39.868Z,7.90
2022-12-22T15:05:06.907Z,7.80
2022-12-22T15:08:04.792Z,7.80
2022-12-22T15:10:19.954Z,7.80
2022-12-22T15:12:46.715Z,7.70
2022-12-22T15:15:13.406Z,7.70
2022-12-22T15:17:39.878Z,7.60
2022-12-22T15:20:06.835Z,7.50
2022-12-22T15:22:33.335Z,7.50
2022-12-22T15:24:59.868Z,7.50
2022-12-22T15:27:26.373Z,7.50
2022-12-22T15:29:52.859Z,7.40
2022-12-22T15:32:19.440Z,7.40
2022-12-22T15:34:45.931Z,7.30
2022-12-22T15:37:12.813Z,7.40
2022-12-22T15:39:39.382Z,7.30
2022-12-22T15:42:05.868Z,7.30
2022-12-22T15:44:38.483Z,7.30
2022-12-22T15:47:05.550Z,7.30
2022-12-22T15:49:32.228Z,7.30
2022-12-22T15:51:58.736Z,7.20
2022-12-22T15:54:25.234Z,7.20
2022-12-22T15:56:51.759Z,7.20
2022-12-22T15:59:18.284Z,7.20
2022-12-22T16:01:45.064Z,7.20
2022-12-22T16:04:11.735Z,7.10
2022-12-22T16:06:38.291Z,7.10
2022-12-22T16:09:04.791Z,7.10
2022-12-22T16:11:31.274Z,7.10
2022-12-22T16:13:57.777Z,7.10
2022-12-22T16:16:24.292Z,7.00
2022-12-22T16:18:51.995Z,7.00
2022-12-22T16:21:18.548Z,7.00
2022-12-22T16:23:45.048Z,7.00
2022-12-22T16:26:11.577Z,6.90
2022-12-22T16:28:38.164Z,6.90
2022-12-22T16:31:04.726Z,6.90
2022-12-22T16:33:31.244Z,6.90
2022-12-22T16:35:57.793Z,7.00
2022-12-22T16:38:24.417Z,6.90
2022-12-22T16:40:50.957Z,7.00
2022-12-22T16:46:02.024Z,6.90
2022-12-22T16:48:28.665Z,7.00
2022-12-22T16:50:55.147Z,6.90
2022-12-22T16:53:21.687Z,6.90
2022-12-22T16:55:48.173Z,6.90
2022-12-22T16:58:14.698Z,6.90
2022-12-22T17:00:41.283Z,6.90
2022-12-22T17:03:07.987Z,6.90
2022-12-22T17:05:42.034Z,6.90
2022-12-22T17:08:10.756Z,6.90
2022-12-22T17:10:37.278Z,7.00
2022-12-22T17:13:03.883Z,7.00
2022-12-22T17:15:30.448Z,6.90
2022-12-22T17:17:56.977Z,6.90
2022-12-22T17:20:23.496Z,6.90
2022-12-22T17:22:50.000Z,6.90
2022-12-22T17:25:16.517Z,6.80
2022-12-22T17:27:43.012Z,6.80
2022-12-22T17:30:14.433Z,6.80
2022-12-22T17:32:44.168Z,6.80
2022-12-22T17:35:10.662Z,6.80
2022-12-22T17:37:37.183Z,6.70
2022-12-22T17:40:03.767Z,6.70
2022-12-22T17:42:31.227Z,6.70
2022-12-22T17:44:57.760Z,6.70
2022-12-22T17:47:32.222Z,6.60
2022-12-22T17:50:01.464Z,6.60
2022-12-22T17:52:28.191Z,6.70
2022-12-22T17:54:55.130Z,6.70
2022-12-22T17:57:21.649Z,6.70
2022-12-22T17:59:48.125Z,6.70
2022-12-22T18:02:14.690Z,6.70
2022-12-22T18:04:41.203Z,6.70
2022-12-22T18:07:07.720Z,6.70
2022-12-22T18:09:34.247Z,6.70
2022-12-22T18:12:00.788Z,6.80
2022-12-22T18:14:27.539Z,6.80
2022-12-22T18:16:54.086Z,6.80
2022-12-22T18:19:20.599Z,6.80
2022-12-22T18:21:47.169Z,6.80
2022-12-22T18:24:13.680Z,6.80
2022-12-22T18:26:40.172Z,6.80
2022-12-22T18:29:06.789Z,6.80
2022-12-22T18:31:33.294Z,6.90
2022-12-22T18:33:59.813Z,6.90
2022-12-22T18:36:26.302Z,6.90
2022-12-22T18:38:52.872Z,6.90
2022-12-22T18:41:19.592Z,6.90
2022-12-22T18:43:46.466Z,6.90
2022-12-22T18:46:13.098Z,6.90
2022-12-22T18:48:39.652Z,6.90
2022-12-22T18:51:07.013Z,6.90
2022-12-22T18:53:33.534Z,7.00
2022-12-22T18:56:00.111Z,7.00
2022-12-22T18:58:26.622Z,7.00
2022-12-22T19:00:53.249Z,7.00
2022-12-22T19:03:19.920Z,7.00
2022-12-22T19:05:47.505Z,7.10
2022-12-22T19:08:14.036Z,7.10
2022-12-22T19:10:40.947Z,7.10
2022-12-22T19:13:08.959Z,7.10
2022-12-22T19:15:38.679Z,7.10
2022-12-22T19:18:05.149Z,7.10
2022-12-22T19:20:31.697Z,7.10
2022-12-22T19:22:58.183Z,7.20
2022-12-22T19:25:24.695Z,7.10
2022-12-22T19:27:51.239Z,7.10
2022-12-22T19:30:17.783Z,7.20
2022-12-22T19:32:46.196Z,7.20
2022-12-22T19:35:12.970Z,7.20
2022-12-22T19:37:39.443Z,7.30
2022-12-22T19:40:05.998Z,7.30
2022-12-22T19:42:32.516Z,7.40
2022-12-22T19:44:59.024Z,7.50
2022-12-22T19:47:28.224Z,7.50
2022-12-22T19:49:54.704Z,7.50
2022-12-22T19:52:21.226Z,7.60
2022-12-22T19:54:47.728Z,7.60
2022-12-22T19:57:14.280Z,7.70
2022-12-22T19:59:40.843Z,7.70
2022-12-22T20:02:07.633Z,7.70
2022-12-22T20:04:34.338Z,7.80
2022-12-22T20:07:00.831Z,7.80
2022-12-22T20:09:27.307Z,7.80
2022-12-22T20:11:53.793Z,7.90
2022-12-22T20:14:20.306Z,7.90
2022-12-22T20:16:46.967Z,8.00
2022-12-22T20:19:13.663Z,8.00
2022-12-22T20:21:40.194Z,8.00
2022-12-22T20:24:06.678Z,8.00
2022-12-22T20:26:33.230Z,8.00
2022-12-22T20:28:59.810Z,8.00
2022-12-22T20:31:26.520Z,8.00
2022-12-22T20:33:54.808Z,8.00
2022-12-22T20:36:21.351Z,8.00
2022-12-22T20:38:47.894Z,8.00
2022-12-22T20:41:14.451Z,8.00
2022-12-22T20:43:41.753Z,8.00
2022-12-22T20:46:08.311Z,8.00
2022-12-22T20:48:34.874Z,8.00
2022-12-22T20:51:01.347Z,8.00
2022-12-22T20:53:27.939Z,8.00
2022-12-22T20:55:54.479Z,8.00
2022-12-22T20:58:22.470Z,8.00
2022-12-22T21:00:49.005Z,8.00
2022-12-22T21:03:15.696Z,8.00
2022-12-22T21:05:42.436Z,8.00
2022-12-22T21:08:08.939Z,8.00
2022-12-22T21:10:35.410Z,8.00
2022-12-22T21:13:01.958Z,8.00
2022-12-22T21:15:28.460Z,8.00
2022-12-22T21:17:58.617Z,8.00
2022-12-22T21:20:25.727Z,8.00
2022-12-22T21:22:52.288Z,8.00
2022-12-22T21:25:18.743Z,8.00
2022-12-22T21:27:45.414Z,8.10
2022-12-22T21:30:11.946Z,8.00
2022-12-22T21:32:38.421Z,8.10
2022-12-22T21:35:08.311Z,8.10
2022-12-22T21:37:35.842Z,8.10
2022-12-22T21:40:02.330Z,8.10
2022-12-22T21:42:28.875Z,8.10
2022-12-22T21:44:56.370Z,8.20
2022-12-22T21:47:22.887Z,8.20
2022-12-22T21:49:49.800Z,8.20
2022-12-22T21:52:16.353Z,8.20
2022-12-22T21:54:43.000Z,8.20
2022-12-22T21:57:09.586Z,8.30
2022-12-22T21:59:36.096Z,8.30
2022-12-22T22:02:02.784Z,8.30
2022-12-22T22:04:29.440Z,8.30
2022-12-22T22:06:55.990Z,8.40
2022-12-22T22:09:22.490Z,8.40
2022-12-22T22:12:07.876Z,8.40
2022-12-22T22:14:34.434Z,8.50
2022-12-22T22:17:00.996Z,8.50
2022-12-22T22:19:27.555Z,8.50
2022-12-22T22:21:54.035Z,8.50
2022-12-22T22:24:20.547Z,8.60
2022-12-22T22:26:49.260Z,8.60
2022-12-22T22:29:15.848Z,8.60
2022-12-22T22:31:42.443Z,8.60
2022-12-22T22:34:09.001Z,8.60
2022-12-22T22:36:35.544Z,8.60
2022-12-22T22:39:02.030Z,8.60
2022-12-22T22:41:31.060Z,8.60
2022-12-22T22:43:57.563Z,8.60
2022-12-22T22:46:24.074Z,8.60
2022-12-22T22:48:50.622Z,8.60
2022-12-22T22:51:17.164Z,8.60
2022-12-22T22:53:43.740Z,8.60
2022-12-22T22:56:10.260Z,8.60
2022-12-22T22:58:36.767Z,8.60
2022-12-22T23:01:03.266Z,8.60
2022-12-22T23:03:29.920Z,8.60
2022-12-22T23:05:56.697Z,8.60
2022-12-22T23:08:23.288Z,8.60
2022-12-22T23:10:49.750Z,8.60
2022-12-22T23:13:16.269Z,8.60
2022-12-22T23:15:42.950Z,8.60
2022-12-22T23:18:09.547Z,8.60
2022-12-22T23:20:36.076Z,8.60
2022-12-22T23:23:02.606Z,8.60
2022-12-22T23:25:29.091Z,8.60
2022-12-22T23:27:55.593Z,8.60
2022-12-22T23:30:22.109Z,8.70
2022-12-22T23:32:48.601Z,8.60
2022-12-22T23:35:15.071Z,8.70
2022-12-22T23:37:41.569Z,8.60
2022-12-22T23:40:41.886Z,8.60
2022-12-22T23:42:57.050Z,8.60
2022-12-22T23:45:23.905Z,8.70
2022-12-22T23:47:50.424Z,8.70
2022-12-22T23:50:16.911Z,8.70
2022-12-22T23:52:48.901Z,8.70
2022-12-22T23:55:16.033Z,8.70
2022-12-22T23:57:42.516Z,8.70
